createdAt,value
2018-04-22T00:02:16.456Z,37.42
2018-04-22T00:04:44.024Z,36.03
2018-04-22T00:07:11.610Z,33.95
2018-04-22T00:09:39.295Z,37.13
2018-04-22T00:12:06.969Z,36.20
2018-04-22T00:14:34.553Z,37.85
2018-04-22T00:17:03.656Z,35.80
2018-04-22T00:19:31.237Z,36.35
2018-04-22T00:21:58.842Z,36.22
2018-04-22T00:24:27.205Z,32.85
2018-04-22T00:26:55.579Z,33.20
2018-04-22T00:29:23.251Z,34.90
2018-04-22T00:31:50.836Z,34.60
2018-04-22T00:34:18.414Z,36.70
2018-04-22T00:36:45.976Z,36.83
2018-04-22T00:39:13.554Z,38.40
2018-04-22T00:41:41.126Z,37.70
2018-04-22T00:44:08.710Z,37.78
2018-04-22T00:46:36.313Z,38.42
2018-04-22T00:49:03.922Z,37.97
2018-04-22T00:51:31.566Z,38.35
2018-04-22T00:54:10.887Z,38.40
2018-04-22T00:56:39.256Z,36.63
2018-04-22T00:59:06.835Z,38.83
2018-04-22T01:01:34.641Z,38.38
2018-04-22T01:04:02.257Z,40.05
2018-04-22T01:06:29.870Z,36.15
2018-04-22T01:08:57.430Z,41.25
2018-04-22T01:11:25.001Z,40.72
2018-04-22T01:13:52.561Z,37.97
2018-04-22T01:16:20.141Z,35.38
2018-04-22T01:18:47.701Z,34.60
2018-04-22T01:21:15.287Z,34.47
2018-04-22T01:23:42.909Z,36.92
2018-04-22T01:26:10.557Z,34.25
2018-04-22T01:28:38.221Z,34.15
2018-04-22T01:31:06.725Z,34.00
2018-04-22T01:33:34.366Z,34.35
2018-04-22T01:36:02.040Z,39.13
2018-04-22T01:38:29.597Z,35.45
2018-04-22T01:40:57.185Z,37.22
2018-04-22T01:43:24.745Z,40.45
2018-04-22T01:45:52.336Z,40.83
2018-04-22T01:48:19.921Z,39.80
2018-04-22T01:50:47.553Z,39.60
2018-04-22T01:53:15.126Z,36.53
2018-04-22T01:55:42.788Z,38.42
2018-04-22T01:58:11.212Z,37.28
2018-04-22T02:00:39.573Z,38.92
2018-04-22T02:03:07.150Z,36.42
2018-04-22T02:05:34.711Z,36.38
2018-04-22T02:08:02.331Z,35.47
2018-04-22T02:10:29.994Z,38.95
2018-04-22T02:12:57.666Z,34.63
2018-04-22T02:15:25.253Z,36.67
2018-04-22T02:17:52.867Z,37.10
2018-04-22T02:20:20.456Z,37.33
2018-04-22T02:22:48.800Z,34.42
2018-04-22T02:25:16.404Z,33.67
2018-04-22T02:27:44.033Z,34.13
2018-04-22T02:30:11.650Z,36.13
2018-04-22T02:32:39.324Z,33.75
2018-04-22T02:35:06.945Z,33.30
2018-04-22T02:37:34.523Z,35.08
2018-04-22T02:40:02.120Z,35.83
2018-04-22T02:42:30.446Z,34.70
2018-04-22T02:44:58.022Z,37.47
2018-04-22T02:47:25.581Z,34.67
2018-04-22T02:49:53.189Z,34.83
2018-04-22T02:52:20.795Z,34.00
2018-04-22T02:54:49.280Z,34.08
2018-04-22T02:57:16.893Z,34.30
2018-04-22T02:59:44.550Z,33.38
2018-04-22T03:02:12.250Z,33.20
2018-04-22T03:04:40.161Z,32.80
2018-04-22T03:07:07.730Z,32.60
2018-04-22T03:09:35.314Z,35.88
2018-04-22T03:12:02.976Z,35.15
2018-04-22T03:14:30.552Z,33.75
2018-04-22T03:16:58.126Z,33.08
2018-04-22T03:19:25.681Z,33.97
2018-04-22T03:21:53.282Z,35.10
2018-04-22T03:24:20.921Z,33.15
2018-04-22T03:26:48.650Z,31.10
2018-04-22T03:29:16.977Z,32.60
2018-04-22T03:31:46.213Z,32.25
2018-04-22T03:34:13.777Z,30.27
2018-04-22T03:36:41.349Z,31.40
2018-04-22T03:39:08.907Z,32.25
2018-04-22T03:41:36.487Z,32.15
2018-04-22T03:44:04.053Z,31.15
2018-04-22T03:46:31.629Z,30.35
2018-04-22T03:48:59.181Z,32.08
2018-04-22T03:51:26.809Z,30.95
2018-04-22T03:53:54.381Z,30.33
2018-04-22T03:56:22.038Z,28.05
2018-04-22T03:58:49.666Z,29.12
2018-04-22T04:01:17.246Z,31.00
2018-04-22T04:03:44.847Z,30.98
2018-04-22T04:06:12.402Z,27.67
2018-04-22T04:08:39.981Z,30.12
2018-04-22T04:11:07.533Z,29.40
2018-04-22T04:13:35.148Z,30.15
2018-04-22T04:16:02.721Z,29.55
2018-04-22T04:21:51.611Z,29.20
2018-04-22T04:27:41.456Z,26.10
2018-04-22T04:30:09.150Z,28.00
2018-04-22T04:32:36.745Z,28.73
2018-04-22T04:35:04.525Z,28.10
2018-04-22T04:37:32.186Z,28.85
2018-04-22T04:40:00.625Z,30.83
2018-04-22T04:42:28.234Z,32.10
2018-04-22T04:44:56.589Z,29.35
2018-04-22T04:47:24.150Z,26.85
2018-04-22T04:49:51.721Z,27.02
2018-04-22T04:52:19.325Z,27.48
2018-04-22T04:54:46.896Z,24.80
2018-04-22T04:57:14.445Z,25.27
2018-04-22T04:59:42.049Z,26.92
2018-04-22T05:02:09.717Z,24.50
2018-04-22T05:04:37.306Z,27.10
2018-04-22T05:07:04.926Z,27.23
2018-04-22T05:09:32.565Z,26.25
2018-04-22T05:12:00.973Z,26.70
2018-04-22T05:14:28.567Z,24.17
2018-04-22T05:16:56.154Z,29.00
2018-04-22T05:19:23.751Z,28.60
2018-04-22T05:21:51.618Z,27.85
2018-04-22T05:24:19.327Z,29.20
2018-04-22T05:26:47.077Z,29.20
2018-04-22T05:29:14.671Z,31.30
2018-04-22T05:31:43.060Z,29.60
2018-04-22T05:34:11.529Z,31.87
2018-04-22T05:36:39.167Z,32.42
2018-04-22T05:39:06.748Z,33.10
2018-04-22T05:41:34.352Z,32.55
2018-04-22T05:44:02.202Z,31.20
2018-04-22T05:46:29.783Z,35.10
2018-04-22T05:48:57.357Z,31.95
2018-04-22T05:51:24.914Z,34.35
2018-04-22T05:53:52.598Z,36.60
2018-04-22T05:56:20.180Z,37.80
2018-04-22T05:58:47.791Z,36.67
2018-04-22T06:01:15.377Z,39.90
2018-04-22T06:03:43.794Z,40.38
2018-04-22T06:06:11.446Z,39.33
2018-04-22T06:08:39.152Z,40.28
2018-04-22T06:11:06.725Z,42.40
2018-04-22T06:13:34.618Z,35.58
2018-04-22T06:16:02.190Z,39.33
2018-04-22T06:18:29.790Z,37.22
2018-04-22T06:20:57.352Z,31.58
2018-04-22T06:23:25.026Z,31.60
2018-04-22T06:25:52.622Z,31.67
2018-04-22T06:28:20.909Z,30.52
2018-04-22T06:30:48.473Z,30.40
2018-04-22T06:33:16.081Z,29.60
2018-04-22T06:35:43.699Z,27.00
2018-04-22T06:38:11.407Z,30.92
2018-04-22T06:40:39.790Z,27.90
2018-04-22T06:43:07.357Z,28.53
2018-04-22T06:45:34.950Z,29.83
2018-04-22T06:48:03.286Z,22.23
2018-04-22T06:50:30.889Z,22.20
2018-04-22T06:52:59.306Z,22.23
2018-04-22T06:55:27.673Z,22.60
2018-04-22T06:57:55.333Z,29.03
2018-04-22T07:00:22.913Z,22.17
2018-04-22T07:02:50.589Z,20.40
2018-04-22T07:05:18.233Z,22.33
2018-04-22T07:07:46.311Z,31.80
2018-04-22T07:10:14.205Z,32.37
2018-04-22T07:12:42.641Z,25.70
2018-04-22T07:15:11.169Z,23.90
2018-04-22T07:17:38.898Z,22.70
2018-04-22T07:20:06.563Z,24.07
2018-04-22T07:22:34.189Z,26.10
2018-04-22T07:25:01.763Z,22.23
2018-04-22T07:27:29.349Z,20.67
2018-04-22T07:29:56.915Z,22.93
2018-04-22T07:32:24.493Z,30.90
2018-04-22T07:34:52.053Z,25.63
2018-04-22T07:37:19.630Z,18.80
2018-04-22T07:39:47.210Z,23.03
2018-04-22T07:42:14.845Z,20.37
2018-04-22T07:44:42.485Z,21.87
2018-04-22T07:47:10.413Z,20.10
2018-04-22T07:49:38.501Z,21.40
2018-04-22T07:52:06.946Z,19.63
2018-04-22T07:54:34.921Z,17.97
2018-04-22T07:57:02.609Z,16.63
2018-04-22T07:59:31.067Z,18.87
2018-04-22T08:01:58.665Z,25.10
2018-04-22T08:04:26.342Z,20.17
2018-04-22T08:06:53.901Z,28.40
2018-04-22T08:09:21.485Z,18.77
2018-04-22T08:11:49.057Z,16.43
2018-04-22T08:14:16.752Z,27.80
2018-04-22T08:16:44.597Z,18.57
2018-04-22T08:19:13.723Z,29.30
2018-04-22T08:21:41.774Z,29.80
2018-04-22T08:24:09.494Z,16.27
2018-04-22T08:26:37.657Z,15.40
2018-04-22T08:29:06.875Z,18.13
2018-04-22T08:31:34.654Z,27.70
2018-04-22T08:34:02.289Z,21.40
2018-04-22T08:36:30.594Z,21.10
2018-04-22T08:38:58.353Z,16.37
2018-04-22T08:41:25.975Z,22.50
2018-04-22T08:43:53.577Z,25.80
2018-04-22T08:46:21.910Z,21.53
2018-04-22T08:48:49.509Z,19.93
2018-04-22T08:51:17.094Z,18.80
2018-04-22T08:53:45.479Z,21.70
2018-04-22T08:56:14.146Z,22.70
2018-04-22T08:58:41.778Z,18.17
2018-04-22T09:01:09.584Z,21.97
2018-04-22T09:03:37.363Z,23.47
2018-04-22T09:06:06.676Z,22.30
2018-04-22T09:08:34.281Z,20.20
2018-04-22T09:11:01.957Z,18.83
2018-04-22T09:13:29.517Z,18.33
2018-04-22T09:15:58.437Z,16.60
2018-04-22T09:18:26.111Z,16.30
2018-04-22T09:20:54.923Z,16.67
2018-04-22T09:23:22.484Z,15.60
2018-04-22T09:25:50.073Z,17.73
2018-04-22T09:28:17.685Z,17.00
2018-04-22T09:30:45.343Z,15.20
2018-04-22T09:33:13.098Z,16.93
2018-04-22T09:35:40.731Z,16.23
2018-04-22T09:38:08.547Z,17.20
2018-04-22T09:40:36.382Z,15.87
2018-04-22T09:43:04.293Z,15.23
2018-04-22T09:45:36.025Z,14.80
2018-04-22T09:48:03.828Z,15.97
2018-04-22T09:50:33.218Z,12.80
2018-04-22T09:53:01.925Z,14.20
2018-04-22T09:55:29.959Z,13.97
2018-04-22T09:57:58.766Z,13.40
2018-04-22T10:00:32.393Z,12.70
2018-04-22T10:03:10.062Z,12.50
2018-04-22T10:05:43.369Z,13.13
2018-04-22T10:08:10.945Z,11.00
2018-04-22T10:10:38.509Z,10.13
2018-04-22T10:13:07.836Z,12.53
2018-04-22T10:15:35.468Z,10.20
2018-04-22T10:18:04.193Z,10.30
2018-04-22T10:20:32.884Z,10.70
2018-04-22T10:23:01.640Z,11.40
2018-04-22T10:25:30.868Z,12.10
2018-04-22T10:27:58.892Z,11.43
2018-04-22T10:30:26.709Z,10.93
2018-04-22T10:32:54.404Z,10.50
2018-04-22T10:35:22.090Z,10.67
2018-04-22T10:37:50.478Z,10.87
2018-04-22T10:40:18.052Z,10.77
2018-04-22T10:42:45.610Z,11.63
2018-04-22T10:45:13.197Z,11.13
2018-04-22T10:47:40.762Z,10.37
2018-04-22T10:50:08.343Z,9.93
2018-04-22T10:52:35.953Z,10.70
2018-04-22T10:55:03.596Z,10.23
2018-04-22T10:57:31.264Z,10.10
2018-04-22T10:59:59.096Z,9.40
2018-04-22T11:02:27.271Z,11.20
2018-04-22T11:04:56.535Z,9.33
2018-04-22T11:07:24.141Z,10.27
2018-04-22T11:09:51.787Z,10.53
2018-04-22T11:12:19.417Z,9.87
2018-04-22T11:14:47.842Z,9.70
2018-04-22T11:17:15.417Z,11.13
2018-04-22T11:19:42.990Z,11.67
2018-04-22T11:22:10.693Z,10.63
2018-04-22T11:24:38.246Z,11.30
2018-04-22T11:27:06.017Z,10.60
2018-04-22T11:29:33.631Z,10.33
2018-04-22T11:32:01.339Z,9.73
2018-04-22T11:34:29.174Z,10.77
2018-04-22T11:36:58.888Z,9.70
2018-04-22T11:39:26.652Z,9.60
2018-04-22T11:41:54.392Z,10.40
2018-04-22T11:44:22.022Z,10.40
2018-04-22T11:46:49.671Z,9.83
2018-04-22T11:49:17.354Z,9.50
2018-04-22T11:51:45.758Z,8.80
2018-04-22T11:54:13.317Z,8.83
2018-04-22T11:56:40.917Z,10.10
2018-04-22T11:59:08.537Z,8.27
2018-04-22T12:01:37.466Z,8.87
2018-04-22T12:04:05.227Z,9.87
2018-04-22T12:06:32.980Z,9.50
2018-04-22T12:09:01.348Z,9.90
2018-04-22T12:11:29.381Z,8.20
2018-04-22T12:13:57.320Z,10.63
2018-04-22T12:16:25.024Z,8.70
2018-04-22T12:18:52.760Z,7.23
2018-04-22T12:21:21.122Z,7.37
2018-04-22T12:23:49.513Z,8.37
2018-04-22T12:26:17.069Z,7.30
2018-04-22T12:28:44.640Z,9.10
2018-04-22T12:31:12.276Z,9.17
2018-04-22T12:33:40.620Z,10.07
2018-04-22T12:36:08.277Z,9.63
2018-04-22T12:38:36.527Z,8.90
2018-04-22T12:41:04.873Z,8.00
2018-04-22T12:43:33.303Z,8.23
2018-04-22T12:46:01.650Z,7.50
2018-04-22T12:48:29.221Z,7.10
2018-04-22T12:50:56.814Z,8.43
2018-04-22T12:53:24.381Z,7.80
2018-04-22T12:55:52.616Z,7.80
2018-04-22T12:58:20.194Z,7.73
2018-04-22T13:00:48.533Z,8.50
2018-04-22T13:03:16.854Z,7.50
2018-04-22T13:05:44.430Z,7.07
2018-04-22T13:08:12.017Z,7.20
2018-04-22T13:10:40.365Z,8.27
2018-04-22T13:13:08.120Z,6.23
2018-04-22T13:15:36.020Z,7.20
2018-04-22T13:18:04.173Z,7.53
2018-04-22T13:20:32.094Z,7.53
2018-04-22T13:23:00.503Z,7.90
2018-04-22T13:25:28.854Z,7.20
2018-04-22T13:27:56.410Z,7.10
2018-04-22T13:30:24.005Z,7.20
2018-04-22T13:32:51.566Z,6.93
2018-04-22T13:35:19.125Z,6.90
2018-04-22T13:37:46.697Z,6.57
2018-04-22T13:40:14.327Z,6.87
2018-04-22T13:42:42.685Z,6.33
2018-04-22T13:45:10.280Z,6.70
2018-04-22T13:47:37.961Z,7.00
2018-04-22T13:50:06.832Z,6.67
2018-04-22T13:52:34.621Z,6.63
2018-04-22T13:55:03.399Z,6.70
2018-04-22T13:57:31.480Z,6.17
2018-04-22T13:59:59.751Z,5.93
2018-04-22T14:02:28.194Z,6.20
2018-04-22T14:04:56.697Z,5.93
2018-04-22T14:07:24.555Z,6.83
2018-04-22T14:09:52.427Z,5.70
2018-04-22T14:12:21.028Z,6.43
2018-04-22T14:14:49.480Z,6.27
2018-04-22T14:17:17.065Z,7.40
2018-04-22T14:19:44.630Z,6.30
2018-04-22T14:22:12.755Z,6.87
2018-04-22T14:24:41.085Z,6.07
2018-04-22T14:27:09.417Z,5.97
2018-04-22T14:29:36.989Z,5.00
2018-04-22T14:32:04.559Z,7.00
2018-04-22T14:34:32.216Z,6.00
2018-04-22T14:37:00.278Z,5.50
2018-04-22T14:39:28.797Z,6.07
2018-04-22T14:41:56.797Z,6.73
2018-04-22T14:44:36.262Z,6.30
2018-04-22T14:47:03.862Z,5.77
2018-04-22T14:49:32.478Z,6.40
2018-04-22T14:52:00.894Z,5.90
2018-04-22T14:54:28.513Z,6.47
2018-04-22T14:56:56.444Z,5.17
2018-04-22T14:59:25.106Z,6.20
2018-04-22T15:01:53.532Z,5.20
2018-04-22T15:04:21.165Z,5.80
2018-04-22T15:06:48.749Z,6.23
2018-04-22T15:09:16.326Z,5.50
2018-04-22T15:11:44.654Z,5.83
2018-04-22T15:14:12.261Z,6.43
2018-04-22T15:16:39.822Z,6.80
2018-04-22T15:19:07.377Z,5.97
2018-04-22T15:21:34.968Z,6.10
2018-04-22T15:24:03.299Z,6.50
2018-04-22T15:26:31.653Z,7.07
2018-04-22T15:28:59.273Z,7.30
2018-04-22T15:31:27.280Z,7.40
2018-04-22T15:33:55.457Z,6.77
2018-04-22T15:36:24.017Z,7.60
2018-04-22T15:38:52.514Z,6.77
2018-04-22T15:41:20.240Z,7.43
2018-04-22T15:43:47.912Z,7.20
2018-04-22T15:46:18.537Z,6.70
2018-04-22T15:48:46.322Z,7.10
2018-04-22T15:51:14.022Z,7.87
2018-04-22T15:53:42.378Z,7.67
2018-04-22T15:56:09.945Z,7.13
2018-04-22T15:58:38.285Z,7.17
2018-04-22T16:01:05.853Z,7.33
2018-04-22T16:03:33.537Z,7.47
2018-04-22T16:06:02.722Z,7.20
2018-04-22T16:08:31.121Z,6.80
2018-04-22T16:10:58.784Z,7.03
2018-04-22T16:13:26.816Z,7.33
2018-04-22T16:15:55.760Z,7.60
2018-04-22T16:18:23.767Z,6.90
2018-04-22T16:20:51.616Z,7.57
2018-04-22T16:23:19.229Z,6.80
2018-04-22T16:25:46.825Z,7.90
2018-04-22T16:28:15.196Z,7.90
2018-04-22T16:30:42.763Z,6.87
2018-04-22T16:33:10.342Z,6.50
2018-04-22T16:35:37.912Z,7.37
2018-04-22T16:38:05.489Z,8.00
2018-04-22T16:40:33.254Z,6.40
2018-04-22T16:43:01.795Z,7.17
2018-04-22T16:45:29.545Z,7.37
2018-04-22T16:47:57.659Z,6.90
2018-04-22T16:50:25.768Z,7.57
2018-04-22T16:52:53.886Z,6.70
2018-04-22T16:55:21.589Z,7.83
2018-04-22T16:57:49.705Z,7.20
2018-04-22T17:00:17.962Z,6.93
2018-04-22T17:02:46.309Z,7.20
2018-04-22T17:05:13.902Z,10.90
2018-04-22T17:07:41.468Z,10.80
2018-04-22T17:12:43.770Z,9.73
2018-04-22T17:15:11.357Z,10.17
2018-04-22T17:17:38.925Z,11.57
2018-04-22T17:20:06.514Z,9.30
2018-04-22T17:22:34.177Z,8.97
2018-04-22T17:25:01.865Z,7.07
2018-04-22T17:27:29.466Z,7.30
2018-04-22T17:29:57.969Z,8.37
2018-04-22T17:32:25.828Z,7.90
2018-04-22T17:34:54.422Z,8.27
2018-04-22T17:37:22.309Z,7.70
2018-04-22T17:39:50.797Z,7.97
2018-04-22T17:42:19.209Z,8.07
2018-04-22T17:44:46.816Z,7.90
2018-04-22T17:47:14.410Z,8.40
2018-04-22T17:49:41.978Z,8.60
2018-04-22T17:52:09.561Z,9.47
2018-04-22T17:54:37.133Z,9.03
2018-04-22T17:57:04.718Z,8.07
2018-04-22T17:59:32.277Z,8.43
2018-04-22T18:01:59.949Z,9.77
2018-04-22T18:04:27.981Z,9.47
2018-04-22T18:06:55.919Z,9.57
2018-04-22T18:09:24.683Z,9.87
2018-04-22T18:11:52.554Z,10.23
2018-04-22T18:14:20.975Z,10.10
2018-04-22T18:16:48.609Z,11.13
2018-04-22T18:19:16.204Z,10.87
2018-04-22T18:21:44.412Z,10.90
2018-04-22T18:24:12.005Z,10.63
2018-04-22T18:26:39.595Z,10.30
2018-04-22T18:29:07.949Z,12.47
2018-04-22T18:31:35.786Z,10.67
2018-04-22T18:34:03.366Z,11.03
2018-04-22T18:36:30.925Z,11.27
2018-04-22T18:38:58.553Z,11.10
2018-04-22T18:41:26.838Z,13.83
2018-04-22T18:43:54.694Z,11.47
2018-04-22T18:46:22.621Z,11.93
2018-04-22T18:48:50.285Z,10.63
2018-04-22T18:51:17.903Z,11.10
2018-04-22T18:53:45.489Z,10.23
2018-04-22T18:56:13.061Z,12.03
2018-04-22T18:58:40.645Z,14.30
2018-04-22T19:01:08.201Z,15.03
2018-04-22T19:03:35.764Z,13.10
2018-04-22T19:06:04.018Z,11.40
2018-04-22T19:08:31.577Z,10.80
2018-04-22T19:10:59.193Z,10.63
2018-04-22T19:13:26.890Z,12.50
2018-04-22T19:15:54.726Z,12.13
2018-04-22T19:18:23.242Z,11.90
2018-04-22T19:20:51.963Z,12.13
2018-04-22T19:23:19.697Z,12.67
2018-04-22T19:25:47.297Z,11.00
2018-04-22T19:28:14.861Z,11.07
2018-04-22T19:30:42.474Z,11.13
2018-04-22T19:33:10.040Z,12.50
2018-04-22T19:35:39.834Z,11.37
2018-04-22T19:38:07.393Z,12.73
2018-04-22T19:40:35.837Z,13.80
2018-04-22T19:43:03.402Z,12.63
2018-04-22T19:45:31.088Z,12.77
2018-04-22T19:47:58.684Z,12.67
2018-04-22T19:50:26.381Z,12.83
2018-04-22T19:52:54.385Z,12.90
2018-04-22T19:55:23.387Z,12.30
2018-04-22T19:57:51.727Z,12.17
2018-04-22T20:00:20.128Z,11.40
2018-04-22T20:02:47.885Z,12.07
2018-04-22T20:05:16.245Z,13.50
2018-04-22T20:07:44.489Z,12.20
2018-04-22T20:10:12.830Z,11.88
2018-04-22T20:12:40.427Z,12.63
2018-04-22T20:15:08.162Z,12.48
2018-04-22T20:17:35.753Z,12.65
2018-04-22T20:20:03.317Z,12.57
2018-04-22T20:22:30.953Z,14.30
2018-04-22T20:24:58.554Z,12.93
2018-04-22T20:27:26.278Z,13.48
2018-04-22T20:29:53.926Z,13.32
2018-04-22T20:32:22.194Z,13.68
2018-04-22T20:34:49.883Z,13.57
2018-04-22T20:37:17.576Z,13.15
2018-04-22T20:39:45.176Z,12.88
2018-04-22T20:42:14.201Z,13.30
2018-04-22T20:44:42.409Z,14.00
2018-04-22T20:47:09.978Z,12.90
2018-04-22T20:49:37.565Z,12.13
2018-04-22T20:52:05.130Z,12.40
2018-04-22T20:54:32.785Z,13.50
2018-04-22T20:57:00.410Z,11.80
2018-04-22T20:59:28.068Z,11.65
2018-04-22T21:01:55.693Z,11.55
2018-04-22T21:04:23.462Z,11.70
2018-04-22T21:06:51.357Z,13.30
2018-04-22T21:09:19.325Z,12.60
2018-04-22T21:11:47.672Z,14.73
2018-04-22T21:14:15.261Z,12.60
2018-04-22T21:16:42.832Z,12.98
2018-04-22T21:19:10.417Z,13.07
2018-04-22T21:21:38.097Z,13.23
2018-04-22T21:24:06.474Z,14.05
2018-04-22T21:26:34.060Z,14.25
2018-04-22T21:29:01.650Z,12.40
2018-04-22T21:31:29.299Z,13.23
2018-04-22T21:33:57.860Z,13.62
2018-04-22T21:36:26.421Z,12.52
2018-04-22T21:38:54.932Z,12.85
2018-04-22T21:41:22.828Z,13.20
2018-04-22T21:43:51.106Z,12.82
2018-04-22T21:46:18.813Z,12.57
2018-04-22T21:48:46.389Z,12.98
2018-04-22T21:51:14.072Z,13.15
2018-04-22T21:53:42.413Z,13.97
2018-04-22T21:56:10.006Z,13.45
2018-04-22T21:58:38.182Z,11.82
2018-04-22T22:01:05.773Z,14.30
2018-04-22T22:03:33.374Z,12.15
2018-04-22T22:06:01.769Z,12.88
2018-04-22T22:08:30.142Z,13.48
2018-04-22T22:10:57.912Z,13.93
2018-04-22T22:13:25.772Z,14.48
2018-04-22T22:15:55.123Z,14.23
2018-04-22T22:18:22.940Z,13.23
2018-04-22T22:20:50.622Z,12.82
2018-04-22T22:23:18.383Z,13.73
2018-04-22T22:25:46.793Z,12.25
2018-04-22T22:28:14.377Z,13.20
2018-04-22T22:30:41.947Z,13.45
2018-04-22T22:33:09.537Z,13.02
2018-04-22T22:35:37.100Z,13.13
2018-04-22T22:38:04.689Z,12.23
2018-04-22T22:40:32.361Z,14.57
2018-04-22T22:43:00.889Z,15.30
2018-04-22T22:45:29.521Z,15.55
2018-04-22T22:47:57.164Z,14.15
2018-04-22T22:50:24.864Z,13.10
2018-04-22T22:52:53.066Z,13.75
2018-04-22T22:55:21.134Z,12.00
2018-04-22T22:57:48.877Z,11.95
2018-04-22T23:00:16.507Z,13.85
2018-04-22T23:02:44.134Z,12.37
2018-04-22T23:05:12.476Z,12.15
2018-04-22T23:07:40.046Z,13.27
2018-04-22T23:10:07.738Z,13.87
2018-04-22T23:12:35.310Z,14.18
2018-04-22T23:15:02.898Z,12.60
2018-04-22T23:17:30.538Z,12.30
2018-04-22T23:19:58.812Z,11.52
2018-04-22T23:22:26.486Z,11.00
2018-04-22T23:24:54.430Z,9.80
2018-04-22T23:27:22.964Z,9.80
2018-04-22T23:29:50.753Z,10.73
2018-04-22T23:32:19.246Z,11.40
2018-04-22T23:34:47.826Z,10.43
2018-04-22T23:37:15.545Z,10.93
2018-04-22T23:39:43.205Z,10.80
2018-04-22T23:42:10.781Z,11.03
2018-04-22T23:44:38.367Z,11.47
2018-04-22T23:47:06.040Z,10.33
2018-04-22T23:49:33.707Z,12.83
2018-04-22T23:52:01.439Z,15.30
2018-04-22T23:54:29.064Z,15.20
2018-04-22T23:56:56.766Z,13.13
2018-04-22T23:59:24.413Z,11.97
